sensor_id;sensor_type;location;lat;lon;timestamp;pressure;altitude;pressure_sealevel;temperature;humidity
70217;BME280;57608;0.000;0.000;2022-08-19T00:00:35;99793.78;;;27.01;34.22
70217;BME280;57608;0.000;0.000;2022-08-19T00:03:00;99792.75;;;27.02;34.46
70217;BME280;57608;0.000;0.000;2022-08-19T00:05:26;99788.22;;;27.02;34.32
70217;BME280;57608;0.000;0.000;2022-08-19T00:07:51;99796.28;;;27.02;34.33
70217;BME280;57608;0.000;0.000;2022-08-19T00:10:20;99797.13;;;27.03;34.13
70217;BME280;57608;0.000;0.000;2022-08-19T00:12:47;99794.28;;;27.04;34.56
70217;BME280;57608;0.000;0.000;2022-08-19T00:15:16;99799.66;;;27.04;34.33
70217;BME280;57608;0.000;0.000;2022-08-19T00:17:43;99801.34;;;27.06;34.45
70217;BME280;57608;0.000;0.000;2022-08-19T00:20:13;99804.03;;;27.06;34.35
70217;BME280;57608;0.000;0.000;2022-08-19T00:22:42;99808.41;;;27.07;34.31
70217;BME280;57608;0.000;0.000;2022-08-19T00:25:08;99803.03;;;27.07;34.61
70217;BME280;57608;0.000;0.000;2022-08-19T00:27:34;99803.03;;;27.07;34.37
70217;BME280;57608;0.000;0.000;2022-08-19T00:30:00;99799.28;;;27.08;34.33
70217;BME280;57608;0.000;0.000;2022-08-19T00:32:27;99806.34;;;27.09;34.64
70217;BME280;57608;0.000;0.000;2022-08-19T00:34:53;99805.53;;;27.08;34.70
70217;BME280;57608;0.000;0.000;2022-08-19T00:37:23;99800.97;;;27.09;34.51
70217;BME280;57608;0.000;0.000;2022-08-19T00:39:50;99807.22;;;27.09;34.69
70217;BME280;57608;0.000;0.000;2022-08-19T00:42:20;99805.34;;;27.10;34.67
70217;BME280;57608;0.000;0.000;2022-08-19T00:44:46;99804.34;;;27.11;34.54
70217;BME280;57608;0.000;0.000;2022-08-19T00:47:12;99808.03;;;27.10;34.75
70217;BME280;57608;0.000;0.000;2022-08-19T00:49:58;99808.03;;;27.10;34.53
70217;BME280;57608;0.000;0.000;2022-08-19T00:52:28;99822.50;;;27.09;34.59
70217;BME280;57608;0.000;0.000;2022-08-19T00:54:56;99828.06;;;27.07;34.62
70217;BME280;57608;0.000;0.000;2022-08-19T00:57:35;99825.72;;;27.04;34.30
70217;BME280;57608;0.000;0.000;2022-08-19T01:00:13;99825.84;;;27.02;34.54
70217;BME280;57608;0.000;0.000;2022-08-19T01:02:40;99837.16;;;26.98;34.43
70217;BME280;57608;0.000;0.000;2022-08-19T01:05:14;99834.81;;;26.95;34.52
70217;BME280;57608;0.000;0.000;2022-08-19T01:07:42;99838.81;;;26.91;34.29
70217;BME280;57608;0.000;0.000;2022-08-19T01:10:11;99848.06;;;26.88;34.50
70217;BME280;57608;0.000;0.000;2022-08-19T01:12:37;99842.22;;;26.84;34.42
70217;BME280;57608;0.000;0.000;2022-08-19T01:15:05;99847.06;;;26.81;34.41
70217;BME280;57608;0.000;0.000;2022-08-19T01:17:33;99849.06;;;26.79;34.45
70217;BME280;57608;0.000;0.000;2022-08-19T01:20:00;99847.75;;;26.75;34.62
70217;BME280;57608;0.000;0.000;2022-08-19T01:22:38;99844.38;;;26.73;34.53
70217;BME280;57608;0.000;0.000;2022-08-19T01:25:09;99845.22;;;26.73;34.83
70217;BME280;57608;0.000;0.000;2022-08-19T01:27:47;99843.53;;;26.72;34.59
70217;BME280;57608;0.000;0.000;2022-08-19T01:30:17;99841.81;;;26.71;34.84
70217;BME280;57608;0.000;0.000;2022-08-19T01:32:43;99845.38;;;26.71;34.97
70217;BME280;57608;0.000;0.000;2022-08-19T01:35:10;99842.69;;;26.71;34.57
70217;BME280;57608;0.000;0.000;2022-08-19T01:37:51;99845.38;;;26.71;34.70
70217;BME280;57608;0.000;0.000;2022-08-19T01:40:18;99843.38;;;26.74;34.94
70217;BME280;57608;0.000;0.000;2022-08-19T01:42:49;99835.28;;;26.74;34.89
70217;BME280;57608;0.000;0.000;2022-08-19T01:45:15;99836.16;;;26.74;34.89
70217;BME280;57608;0.000;0.000;2022-08-19T01:47:41;99825.41;;;26.74;35.04
70217;BME280;57608;0.000;0.000;2022-08-19T01:50:09;99831.59;;;26.75;34.92
70217;BME280;57608;0.000;0.000;2022-08-19T01:52:40;99833.28;;;26.76;34.88
70217;BME280;57608;0.000;0.000;2022-08-19T01:55:09;99830.59;;;26.76;35.07
70217;BME280;57608;0.000;0.000;2022-08-19T01:57:35;99827.91;;;26.76;34.63
70217;BME280;57608;0.000;0.000;2022-08-19T02:00:05;99825.22;;;26.76;34.71
70217;BME280;57608;0.000;0.000;2022-08-19T02:02:31;99820.69;;;26.76;34.81
70217;BME280;57608;0.000;0.000;2022-08-19T02:04:58;99812.78;;;26.75;35.02
70217;BME280;57608;0.000;0.000;2022-08-19T02:07:23;99808.41;;;26.74;34.78
70217;BME280;57608;0.000;0.000;2022-08-19T02:09:49;99812.78;;;26.75;34.63
70217;BME280;57608;0.000;0.000;2022-08-19T02:12:15;99809.41;;;26.73;34.86
70217;BME280;57608;0.000;0.000;2022-08-19T02:14:41;99817.50;;;26.73;34.71
70217;BME280;57608;0.000;0.000;2022-08-19T02:17:07;99825.69;;;26.71;34.46
70217;BME280;57608;0.000;0.000;2022-08-19T02:19:33;99854.44;;;26.70;34.68
70217;BME280;57608;0.000;0.000;2022-08-19T02:21:59;99850.88;;;26.70;34.97
70217;BME280;57608;0.000;0.000;2022-08-19T02:24:26;99860.81;;;26.69;34.78
70217;BME280;57608;0.000;0.000;2022-08-19T02:26:52;99857.47;;;26.67;34.82
70217;BME280;57608;0.000;0.000;2022-08-19T02:29:17;99859.47;;;26.65;34.97
70217;BME280;57608;0.000;0.000;2022-08-19T02:31:43;99856.44;;;26.60;34.61
70217;BME280;57608;0.000;0.000;2022-08-19T02:34:08;99853.06;;;26.58;34.90
70217;BME280;57608;0.000;0.000;2022-08-19T02:36:34;99847.03;;;26.56;34.72
70217;BME280;57608;0.000;0.000;2022-08-19T02:38:59;99848.38;;;26.52;34.90
70217;BME280;57608;0.000;0.000;2022-08-19T02:41:28;99854.06;;;26.49;34.93
70217;BME280;57608;0.000;0.000;2022-08-19T02:43:55;99854.41;;;26.46;34.73
70217;BME280;57608;0.000;0.000;2022-08-19T02:46:28;99847.69;;;26.42;34.69
70217;BME280;57608;0.000;0.000;2022-08-19T02:48:56;99849.88;;;26.38;34.98
70217;BME280;57608;0.000;0.000;2022-08-19T02:51:28;99855.41;;;26.36;34.98
70217;BME280;57608;0.000;0.000;2022-08-19T02:53:54;99855.72;;;26.33;35.02
70217;BME280;57608;0.000;0.000;2022-08-19T02:56:20;99860.25;;;26.33;35.31
70217;BME280;57608;0.000;0.000;2022-08-19T02:58:46;99854.38;;;26.29;34.82
70217;BME280;57608;0.000;0.000;2022-08-19T03:01:23;99856.06;;;26.30;34.86
70217;BME280;57608;0.000;0.000;2022-08-19T03:03:49;99850.69;;;26.30;35.21
70217;BME280;57608;0.000;0.000;2022-08-19T03:06:16;99857.75;;;26.31;35.25
70217;BME280;57608;0.000;0.000;2022-08-19T03:08:44;99852.38;;;26.31;35.09
70217;BME280;57608;0.000;0.000;2022-08-19T03:11:22;99857.75;;;26.31;35.24
70217;BME280;57608;0.000;0.000;2022-08-19T03:13:49;99856.75;;;26.32;35.11
70217;BME280;57608;0.000;0.000;2022-08-19T03:16:17;99864.81;;;26.32;35.40
70217;BME280;57608;0.000;0.000;2022-08-19T03:18:43;99869.16;;;26.33;35.13
70217;BME280;57608;0.000;0.000;2022-08-19T03:21:14;99870.00;;;26.34;35.49
70217;BME280;57608;0.000;0.000;2022-08-19T03:23:39;99873.53;;;26.34;35.46
70217;BME280;57608;0.000;0.000;2022-08-19T03:26:07;99870.84;;;26.34;35.13
70217;BME280;57608;0.000;0.000;2022-08-19T03:28:33;99877.91;;;26.35;35.35
70217;BME280;57608;0.000;0.000;2022-08-19T03:31:06;99876.03;;;26.36;35.19
70217;BME280;57608;0.000;0.000;2022-08-19T03:33:33;99872.34;;;26.37;35.13
70217;BME280;57608;0.000;0.000;2022-08-19T03:36:20;99871.53;;;26.36;35.37
70217;BME280;57608;0.000;0.000;2022-08-19T03:38:50;99879.41;;;26.38;35.41
70217;BME280;57608;0.000;0.000;2022-08-19T03:41:21;99867.84;;;26.37;35.30
70217;BME280;57608;0.000;0.000;2022-08-19T03:43:47;99866.97;;;26.37;35.34
70217;BME280;57608;0.000;0.000;2022-08-19T03:46:16;99874.22;;;26.36;35.22
70217;BME280;57608;0.000;0.000;2022-08-19T03:48:43;99858.09;;;26.36;35.50
70217;BME280;57608;0.000;0.000;2022-08-19T03:51:24;99860.78;;;26.36;35.23
70217;BME280;57608;0.000;0.000;2022-08-19T03:53:51;99866.31;;;26.35;35.32
70217;BME280;57608;0.000;0.000;2022-08-19T03:56:18;99862.78;;;26.34;35.27
70217;BME280;57608;0.000;0.000;2022-08-19T03:58:44;99862.13;;;26.32;35.34
70217;BME280;57608;0.000;0.000;2022-08-19T04:01:13;99865.13;;;26.29;35.42
70217;BME280;57608;0.000;0.000;2022-08-19T04:03:40;99870.66;;;26.28;35.37
70217;BME280;57608;0.000;0.000;2022-08-19T04:06:16;99874.50;;;26.25;35.33
70217;BME280;57608;0.000;0.000;2022-08-19T04:08:43;99872.81;;;26.24;35.49
70217;BME280;57608;0.000;0.000;2022-08-19T04:11:13;99876.84;;;26.20;35.60
70217;BME280;57608;0.000;0.000;2022-08-19T04:13:39;99880.53;;;26.19;35.74
70217;BME280;57608;0.000;0.000;2022-08-19T04:16:05;99882.56;;;26.17;35.50
70217;BME280;57608;0.000;0.000;2022-08-19T04:18:33;99874.81;;;26.14;35.79
70217;BME280;57608;0.000;0.000;2022-08-19T04:20:58;99886.53;;;26.13;36.07
70217;BME280;57608;0.000;0.000;2022-08-19T04:23:24;99884.88;;;26.12;35.62
70217;BME280;57608;0.000;0.000;2022-08-19T04:25:50;99882.38;;;26.10;36.11
70217;BME280;57608;0.000;0.000;2022-08-19T04:28:16;99875.97;;;26.11;36.08
70217;BME280;57608;0.000;0.000;2022-08-19T04:30:44;99883.22;;;26.11;35.92
70217;BME280;57608;0.000;0.000;2022-08-19T04:33:11;99884.03;;;26.11;36.28
70217;BME280;57608;0.000;0.000;2022-08-19T04:35:40;99888.41;;;26.12;36.10
70217;BME280;57608;0.000;0.000;2022-08-19T04:38:07;99888.25;;;26.14;36.24
70217;BME280;57608;0.000;0.000;2022-08-19T04:40:34;99896.13;;;26.15;36.23
70217;BME280;57608;0.000;0.000;2022-08-19T04:43:23;99886.91;;;26.18;36.64
70217;BME280;57608;0.000;0.000;2022-08-19T04:45:48;99900.31;;;26.18;36.24
70217;BME280;57608;0.000;0.000;2022-08-19T04:48:16;99889.28;;;26.21;36.37
70217;BME280;57608;0.000;0.000;2022-08-19T04:50:43;99891.78;;;26.22;36.31
70217;BME280;57608;0.000;0.000;2022-08-19T04:53:09;99892.63;;;26.23;36.45
70217;BME280;57608;0.000;0.000;2022-08-19T04:55:34;99890.63;;;26.25;36.29
70217;BME280;57608;0.000;0.000;2022-08-19T04:58:03;99883.25;;;26.27;36.27
70217;BME280;57608;0.000;0.000;2022-08-19T05:00:29;99882.41;;;26.27;36.50
70217;BME280;57608;0.000;0.000;2022-08-19T05:02:54;99889.97;;;26.31;36.55
70217;BME280;57608;0.000;0.000;2022-08-19T05:05:20;99894.34;;;26.32;36.58
70217;BME280;57608;0.000;0.000;2022-08-19T05:07:46;99896.69;;;26.35;36.57
70217;BME280;57608;0.000;0.000;2022-08-19T05:10:11;99897.38;;;26.37;36.84
70217;BME280;57608;0.000;0.000;2022-08-19T05:12:38;99894.38;;;26.41;36.93
70217;BME280;57608;0.000;0.000;2022-08-19T05:15:07;99899.41;;;26.44;36.93
70217;BME280;57608;0.000;0.000;2022-08-19T05:17:34;99896.53;;;26.45;36.83
70217;BME280;57608;0.000;0.000;2022-08-19T05:20:00;99896.41;;;26.47;36.87
70217;BME280;57608;0.000;0.000;2022-08-19T05:22:46;99898.75;;;26.50;36.71
70217;BME280;57608;0.000;0.000;2022-08-19T05:25:15;99898.41;;;26.53;36.66
70217;BME280;57608;0.000;0.000;2022-08-19T05:27:43;99897.22;;;26.55;37.13
70217;BME280;57608;0.000;0.000;2022-08-19T05:30:11;99896.06;;;26.58;37.15
70217;BME280;57608;0.000;0.000;2022-08-19T05:32:38;99901.13;;;26.61;36.99
70217;BME280;57608;0.000;0.000;2022-08-19T05:35:04;99900.78;;;26.64;37.13
70217;BME280;57608;0.000;0.000;2022-08-19T05:37:30;99891.72;;;26.65;37.03
70217;BME280;57608;0.000;0.000;2022-08-19T05:39:55;99890.72;;;26.66;36.97
70217;BME280;57608;0.000;0.000;2022-08-19T05:42:21;99901.28;;;26.68;36.84
70217;BME280;57608;0.000;0.000;2022-08-19T05:44:48;99899.59;;;26.67;36.86
70217;BME280;57608;0.000;0.000;2022-08-19T05:47:15;99891.72;;;26.65;36.76
70217;BME280;57608;0.000;0.000;2022-08-19T05:49:42;99896.25;;;26.65;36.70
70217;BME280;57608;0.000;0.000;2022-08-19T05:52:11;99899.94;;;26.64;37.04
70217;BME280;57608;0.000;0.000;2022-08-19T05:54:39;99896.75;;;26.60;36.83
70217;BME280;57608;0.000;0.000;2022-08-19T05:57:09;99895.22;;;26.58;37.06
70217;BME280;57608;0.000;0.000;2022-08-19T05:59:35;99898.09;;;26.56;36.96
70217;BME280;57608;0.000;0.000;2022-08-19T06:02:01;99896.41;;;26.55;37.08
70217;BME280;57608;0.000;0.000;2022-08-19T06:04:27;99898.41;;;26.53;37.17
70217;BME280;57608;0.000;0.000;2022-08-19T06:06:54;99894.06;;;26.52;37.50
70217;BME280;57608;0.000;0.000;2022-08-19T06:09:21;99893.03;;;26.53;37.38
70217;BME280;57608;0.000;0.000;2022-08-19T06:11:50;99898.41;;;26.53;37.31
70217;BME280;57608;0.000;0.000;2022-08-19T06:14:22;99901.09;;;26.53;37.24
70217;BME280;57608;0.000;0.000;2022-08-19T06:16:48;99896.75;;;26.52;37.57
70217;BME280;57608;0.000;0.000;2022-08-19T06:19:19;99901.25;;;26.51;37.33
70217;BME280;57608;0.000;0.000;2022-08-19T06:21:47;99904.94;;;26.50;37.34
70217;BME280;57608;0.000;0.000;2022-08-19T06:24:15;99906.13;;;26.48;37.60
70217;BME280;57608;0.000;0.000;2022-08-19T06:26:43;99914.88;;;26.50;37.55
70217;BME280;57608;0.000;0.000;2022-08-19T06:29:11;99907.81;;;26.49;37.43
70217;BME280;57608;0.000;0.000;2022-08-19T06:31:41;99904.13;;;26.50;37.53
70217;BME280;57608;0.000;0.000;2022-08-19T06:34:07;99908.50;;;26.51;37.78
70217;BME280;57608;0.000;0.000;2022-08-19T06:36:37;99902.13;;;26.52;37.62
70217;BME280;57608;0.000;0.000;2022-08-19T06:39:05;99900.09;;;26.54;37.87
70217;BME280;57608;0.000;0.000;2022-08-19T06:41:34;99898.09;;;26.56;37.87
70217;BME280;57608;0.000;0.000;2022-08-19T06:44:00;99907.84;;;26.57;37.96
70217;BME280;57608;0.000;0.000;2022-08-19T06:46:27;99899.78;;;26.57;37.81
70217;BME280;57608;0.000;0.000;2022-08-19T06:48:53;99899.59;;;26.59;37.73
70217;BME280;57608;0.000;0.000;2022-08-19T06:51:20;99901.28;;;26.60;37.68
70217;BME280;57608;0.000;0.000;2022-08-19T06:53:50;99896.56;;;26.62;37.43
70217;BME280;57608;0.000;0.000;2022-08-19T06:56:18;99907.16;;;26.63;37.61
70217;BME280;57608;0.000;0.000;2022-08-19T06:58:44;99898.09;;;26.64;37.59
70217;BME280;57608;0.000;0.000;2022-08-19T07:01:10;99902.47;;;26.65;37.46
70217;BME280;57608;0.000;0.000;2022-08-19T07:03:37;99905.97;;;26.66;37.48
70217;BME280;57608;0.000;0.000;2022-08-19T07:06:08;99909.53;;;26.66;37.67
70217;BME280;57608;0.000;0.000;2022-08-19T07:08:35;99904.16;;;26.66;37.60
70217;BME280;57608;0.000;0.000;2022-08-19T07:11:10;99912.88;;;26.68;37.78
70217;BME280;57608;0.000;0.000;2022-08-19T07:13:37;99912.03;;;26.68;37.48
70217;BME280;57608;0.000;0.000;2022-08-19T07:16:07;99901.28;;;26.68;37.43
70217;BME280;57608;0.000;0.000;2022-08-19T07:18:33;99908.34;;;26.69;37.05
70217;BME280;57608;0.000;0.000;2022-08-19T07:21:07;99910.19;;;26.68;37.49
70217;BME280;57608;0.000;0.000;2022-08-19T07:23:33;99910.19;;;26.68;37.79
70217;BME280;57608;0.000;0.000;2022-08-19T07:26:06;99907.50;;;26.68;37.57
70217;BME280;57608;0.000;0.000;2022-08-19T07:28:32;99912.88;;;26.68;37.70
70217;BME280;57608;0.000;0.000;2022-08-19T07:30:58;99907.66;;;26.67;37.58
70217;BME280;57608;0.000;0.000;2022-08-19T07:33:23;99905.16;;;26.65;37.68
70217;BME280;57608;0.000;0.000;2022-08-19T07:35:49;99916.25;;;26.62;37.74
70217;BME280;57608;0.000;0.000;2022-08-19T07:38:15;99906.50;;;26.61;37.55
70217;BME280;57608;0.000;0.000;2022-08-19T07:40:41;99916.56;;;26.59;37.64
70217;BME280;57608;0.000;0.000;2022-08-19T07:43:08;99914.22;;;26.56;37.51
70217;BME280;57608;0.000;0.000;2022-08-19T07:45:33;99916.22;;;26.54;37.65
70217;BME280;57608;0.000;0.000;2022-08-19T07:47:59;99912.88;;;26.52;37.59
70217;BME280;57608;0.000;0.000;2022-08-19T07:50:24;99920.25;;;26.50;37.68
70217;BME280;57608;0.000;0.000;2022-08-19T07:52:50;99926.31;;;26.52;37.72
70217;BME280;57608;0.000;0.000;2022-08-19T07:55:20;99921.94;;;26.51;37.75
70217;BME280;57608;0.000;0.000;2022-08-19T07:57:46;99914.88;;;26.50;37.69
70217;BME280;57608;0.000;0.000;2022-08-19T08:00:12;99921.06;;;26.50;37.50
70217;BME280;57608;0.000;0.000;2022-08-19T08:02:38;99915.56;;;26.52;37.61
70217;BME280;57608;0.000;0.000;2022-08-19T08:05:04;99919.75;;;26.54;37.59
70217;BME280;57608;0.000;0.000;2022-08-19T08:07:48;99923.28;;;26.55;37.47
70217;BME280;57608;0.000;0.000;2022-08-19T08:10:32;99932.84;;;26.58;37.47
70217;BME280;57608;0.000;0.000;2022-08-19T08:12:59;99926.31;;;26.60;37.43
70217;BME280;57608;0.000;0.000;2022-08-19T08:15:24;99958.56;;;26.60;37.75
70217;BME280;57608;0.000;0.000;2022-08-19T08:17:50;99924.31;;;26.62;37.49
70217;BME280;57608;0.000;0.000;2022-08-19T08:20:16;99929.34;;;26.65;37.49
70217;BME280;57608;0.000;0.000;2022-08-19T08:22:45;99938.09;;;26.67;37.54
70217;BME280;57608;0.000;0.000;2022-08-19T08:25:30;99958.56;;;26.68;37.57
70217;BME280;57608;0.000;0.000;2022-08-19T08:27:56;99937.75;;;26.70;37.69
70217;BME280;57608;0.000;0.000;2022-08-19T08:30:26;99928.69;;;26.71;37.87
70217;BME280;57608;0.000;0.000;2022-08-19T08:32:53;99936.59;;;26.73;37.68
70217;BME280;57608;0.000;0.000;2022-08-19T08:35:21;99939.94;;;26.75;37.70
70217;BME280;57608;0.000;0.000;2022-08-19T08:37:48;99937.13;;;26.77;37.57
70217;BME280;57608;0.000;0.000;2022-08-19T08:40:53;99948.72;;;26.77;37.37
70217;BME280;57608;0.000;0.000;2022-08-19T08:43:33;99927.19;;;26.77;37.38
70217;BME280;57608;0.000;0.000;2022-08-19T08:46:05;99933.41;;;26.78;37.50
70217;BME280;57608;0.000;0.000;2022-08-19T08:51:05;99922.66;;;26.78;37.28
70217;BME280;57608;0.000;0.000;2022-08-19T08:53:34;99921.81;;;26.77;37.45
70217;BME280;57608;0.000;0.000;2022-08-19T08:56:02;99923.69;;;26.77;37.34
70217;BME280;57608;0.000;0.000;2022-08-19T08:58:39;99940.47;;;26.79;37.11
70217;BME280;57608;0.000;0.000;2022-08-19T09:01:09;99933.41;;;26.78;37.44
70217;BME280;57608;0.000;0.000;2022-08-19T09:03:37;99922.66;;;26.78;37.37
70217;BME280;57608;0.000;0.000;2022-08-19T09:06:07;99931.56;;;26.78;36.96
70217;BME280;57608;0.000;0.000;2022-08-19T09:11:44;99932.91;;;26.74;36.95
70217;BME280;57608;0.000;0.000;2022-08-19T09:14:37;99929.69;;;26.70;37.07
70217;BME280;57608;0.000;0.000;2022-08-19T09:17:09;99944.28;;;26.68;37.07
70217;BME280;57608;0.000;0.000;2022-08-19T09:19:59;99938.41;;;26.64;36.85
70217;BME280;57608;0.000;0.000;2022-08-19T09:22:39;99947.81;;;26.60;36.78
70217;BME280;57608;0.000;0.000;2022-08-19T09:25:07;99936.38;;;26.58;36.88
70217;BME280;57608;0.000;0.000;2022-08-19T09:27:35;99931.16;;;26.57;37.15
70217;BME280;57608;0.000;0.000;2022-08-19T09:30:04;99939.41;;;26.55;36.99
70217;BME280;57608;0.000;0.000;2022-08-19T09:32:30;99936.03;;;26.53;37.17
70217;BME280;57608;0.000;0.000;2022-08-19T09:34:55;99930.66;;;26.53;37.10
70217;BME280;57608;0.000;0.000;2022-08-19T09:37:24;99938.69;;;26.53;37.02
70217;BME280;57608;0.000;0.000;2022-08-19T09:39:50;99934.38;;;26.52;37.04
70217;BME280;57608;0.000;0.000;2022-08-19T09:42:16;99938.88;;;26.51;37.08
70217;BME280;57608;0.000;0.000;2022-08-19T09:44:41;99950.78;;;26.49;37.00
70217;BME280;57608;0.000;0.000;2022-08-19T09:47:10;99947.44;;;26.47;36.89
70217;BME280;57608;0.000;0.000;2022-08-19T09:49:36;99937.69;;;26.46;37.00
70217;BME280;57608;0.000;0.000;2022-08-19T09:52:03;99983.38;;;26.46;36.97
70217;BME280;57608;0.000;0.000;2022-08-19T09:54:28;99944.75;;;26.47;36.91
70217;BME280;57608;0.000;0.000;2022-08-19T09:56:55;99929.63;;;26.46;36.90
70217;BME280;57608;0.000;0.000;2022-08-19T09:59:23;99942.06;;;26.47;37.02
70217;BME280;57608;0.000;0.000;2022-08-19T10:01:49;99954.47;;;26.48;36.78
70217;BME280;57608;0.000;0.000;2022-08-19T10:04:15;99947.44;;;26.47;36.26
70217;BME280;57608;0.000;0.000;2022-08-19T10:06:40;99951.97;;;26.46;35.89
70217;BME280;57608;0.000;0.000;2022-08-19T10:09:09;99951.13;;;26.46;36.06
70217;BME280;57608;0.000;0.000;2022-08-19T10:11:40;99954.81;;;26.45;35.73
70217;BME280;57608;0.000;0.000;2022-08-19T10:14:07;99962.88;;;26.45;35.55
70217;BME280;57608;0.000;0.000;2022-08-19T10:16:33;99972.94;;;26.43;35.43
70217;BME280;57608;0.000;0.000;2022-08-19T10:18:59;99976.66;;;26.42;35.21
70217;BME280;57608;0.000;0.000;2022-08-19T10:21:30;99964.22;;;26.41;35.19
70217;BME280;57608;0.000;0.000;2022-08-19T10:23:59;99959.84;;;26.39;35.06
70217;BME280;57608;0.000;0.000;2022-08-19T10:26:28;99971.56;;;26.38;34.92
70217;BME280;57608;0.000;0.000;2022-08-19T10:28:54;99964.56;;;26.37;34.64
70217;BME280;57608;0.000;0.000;2022-08-19T10:31:22;99965.53;;;26.36;34.61
70217;BME280;57608;0.000;0.000;2022-08-19T10:33:49;99955.78;;;26.35;34.41
70217;BME280;57608;0.000;0.000;2022-08-19T10:36:20;99956.78;;;26.34;34.61
70217;BME280;57608;0.000;0.000;2022-08-19T10:38:50;99961.50;;;26.32;32.72
70217;BME280;57608;0.000;0.000;2022-08-19T10:41:19;99976.75;;;26.32;34.39
70217;BME280;57608;0.000;0.000;2022-08-19T10:43:45;99960.81;;;26.30;34.25
70217;BME280;57608;0.000;0.000;2022-08-19T10:46:13;99963.84;;;26.27;33.73
70217;BME280;57608;0.000;0.000;2022-08-19T10:48:40;99965.00;;;26.25;33.14
70217;BME280;57608;0.000;0.000;2022-08-19T10:51:06;99970.50;;;26.23;33.06
70217;BME280;57608;0.000;0.000;2022-08-19T10:53:51;99975.22;;;26.21;32.80
70217;BME280;57608;0.000;0.000;2022-08-19T10:56:17;99970.31;;;26.16;32.68
70217;BME280;57608;0.000;0.000;2022-08-19T10:59:01;99972.66;;;26.11;32.78
70217;BME280;57608;0.000;0.000;2022-08-19T11:01:29;99972.28;;;26.06;32.50
70217;BME280;57608;0.000;0.000;2022-08-19T11:03:56;99981.81;;;26.00;32.13
70217;BME280;57608;0.000;0.000;2022-08-19T11:06:23;99974.38;;;25.94;31.89
70217;BME280;57608;0.000;0.000;2022-08-19T11:08:53;99974.72;;;25.91;32.15
70217;BME280;57608;0.000;0.000;2022-08-19T11:11:20;99965.28;;;25.87;31.93
70217;BME280;57608;0.000;0.000;2022-08-19T11:13:48;99966.44;;;25.84;32.04
70217;BME280;57608;0.000;0.000;2022-08-19T11:16:23;99975.66;;;25.82;32.02
70217;BME280;57608;0.000;0.000;2022-08-19T11:18:52;99966.91;;;25.80;32.11
70217;BME280;57608;0.000;0.000;2022-08-19T11:21:24;99974.97;;;25.80;32.32
70217;BME280;57608;0.000;0.000;2022-08-19T11:23:52;99966.91;;;25.80;32.37
70217;BME280;57608;0.000;0.000;2022-08-19T11:26:19;99962.25;;;25.82;32.06
70217;BME280;57608;0.000;0.000;2022-08-19T11:28:45;99954.84;;;25.84;32.40
70217;BME280;57608;0.000;0.000;2022-08-19T11:31:17;99953.88;;;25.85;32.07
70217;BME280;57608;0.000;0.000;2022-08-19T11:33:44;99951.00;;;25.86;32.32
70217;BME280;57608;0.000;0.000;2022-08-19T11:36:11;99949.84;;;25.89;32.37
70217;BME280;57608;0.000;0.000;2022-08-19T11:38:37;99950.38;;;25.93;32.30
70217;BME280;57608;0.000;0.000;2022-08-19T11:41:05;99954.59;;;25.95;32.29
70217;BME280;57608;0.000;0.000;2022-08-19T11:43:33;99973.75;;;26.00;31.84
70217;BME280;57608;0.000;0.000;2022-08-19T11:45:58;99954.63;;;26.03;32.16
70217;BME280;57608;0.000;0.000;2022-08-19T11:48:24;99955.34;;;26.05;31.81
70217;BME280;57608;0.000;0.000;2022-08-19T11:50:52;99959.72;;;26.07;32.06
70217;BME280;57608;0.000;0.000;2022-08-19T11:53:19;99973.81;;;26.09;32.38
70217;BME280;57608;0.000;0.000;2022-08-19T11:55:46;99960.25;;;26.10;32.25
70217;BME280;57608;0.000;0.000;2022-08-19T11:58:14;99956.38;;;26.13;32.33
70217;BME280;57608;0.000;0.000;2022-08-19T12:00:43;99955.19;;;26.15;32.43
70217;BME280;57608;0.000;0.000;2022-08-19T12:03:11;99960.44;;;26.17;32.42
70217;BME280;57608;0.000;0.000;2022-08-19T12:05:37;99951.34;;;26.18;32.21
70217;BME280;57608;0.000;0.000;2022-08-19T12:08:03;99947.50;;;26.20;32.38
70217;BME280;57608;0.000;0.000;2022-08-19T12:10:29;99951.88;;;26.21;32.43
70217;BME280;57608;0.000;0.000;2022-08-19T12:12:54;99944.69;;;26.22;32.58
70217;BME280;57608;0.000;0.000;2022-08-19T12:15:20;99962.44;;;26.23;32.79
70217;BME280;57608;0.000;0.000;2022-08-19T12:17:45;99947.19;;;26.24;32.77
70217;BME280;57608;0.000;0.000;2022-08-19T12:20:12;99937.28;;;26.24;32.71
70217;BME280;57608;0.000;0.000;2022-08-19T12:22:39;99944.34;;;26.25;32.67
70217;BME280;57608;0.000;0.000;2022-08-19T12:25:07;99954.09;;;26.26;32.67
70217;BME280;57608;0.000;0.000;2022-08-19T12:27:33;99940.66;;;26.26;33.00
70217;BME280;57608;0.000;0.000;2022-08-19T12:30:02;99946.03;;;26.26;33.01
70217;BME280;57608;0.000;0.000;2022-08-19T12:32:28;99942.66;;;26.24;33.05
70217;BME280;57608;0.000;0.000;2022-08-19T12:34:55;99944.69;;;26.22;33.08
70217;BME280;57608;0.000;0.000;2022-08-19T12:37:20;99931.56;;;26.19;33.16
70217;BME280;57608;0.000;0.000;2022-08-19T12:39:46;99939.94;;;26.16;33.27
70217;BME280;57608;0.000;0.000;2022-08-19T12:42:13;99937.56;;;26.13;33.33
70217;BME280;57608;0.000;0.000;2022-08-19T12:44:41;99938.75;;;26.10;33.48
70217;BME280;57608;0.000;0.000;2022-08-19T12:47:08;99944.28;;;26.09;33.52
70217;BME280;57608;0.000;0.000;2022-08-19T12:49:35;99940.94;;;26.07;33.60
70217;BME280;57608;0.000;0.000;2022-08-19T12:52:03;99942.09;;;26.04;33.42
70217;BME280;57608;0.000;0.000;2022-08-19T12:54:28;99941.91;;;26.05;33.85
70217;BME280;57608;0.000;0.000;2022-08-19T12:56:56;99935.56;;;26.07;33.67
70217;BME280;57608;0.000;0.000;2022-08-19T12:59:22;99938.91;;;26.09;34.15
70217;BME280;57608;0.000;0.000;2022-08-19T13:01:47;99950.34;;;26.11;34.07
70217;BME280;57608;0.000;0.000;2022-08-19T13:04:13;99956.06;;;26.16;34.31
70217;BME280;57608;0.000;0.000;2022-08-19T13:06:38;99954.03;;;26.18;34.28
70217;BME280;57608;0.000;0.000;2022-08-19T13:09:04;99953.91;;;26.19;34.25
70217;BME280;57608;0.000;0.000;2022-08-19T13:11:30;99950.06;;;26.22;34.13
70217;BME280;57608;0.000;0.000;2022-08-19T13:13:59;99943.66;;;26.23;33.88
70217;BME280;57608;0.000;0.000;2022-08-19T13:16:26;99951.41;;;26.26;34.22
70217;BME280;57608;0.000;0.000;2022-08-19T13:18:54;99957.44;;;26.28;34.22
70217;BME280;57608;0.000;0.000;2022-08-19T13:21:23;99956.28;;;26.31;34.12